Dobrodošli na spletni strani vremenske postaje Senovo. Vse informacije so informativnega značaja, saj vremenska postaja ni del državne mreže meteoroloških postaj. AKTUALNIH OBVESTIL NI.


Posebna pozornost v zvezi z vremenskimi dogajanji ni potrebna.    Posebna pozornost v zvezi z vremenskimi dogajanji ni potrebna.

Pogled proti Armezu več informacij Pogled proti Armezu


Bohor več informacij Bohor


Radar strel več informacij blitzortung!


Radar padavin več informacij rain snow radar


Obiščite še:

Template documentation
and downloads

And another site



Weather Underground, zgodovina - Tekstovno

Dnevni povzetek za Februar 25, 2017 Enote:  Metrično    Angleško   Obe
« Predhodni Dan
Naslednji Dan »
Dnevni Tedenski Mesečni Letni Po meri
  Višja: Nižja: Povprečje:
Temperatura: -17.8 °C -19.1 °C -15.8 °C
Točka rosišča: -17.8 °C -20.5 °C -17.9 °C
Vlažnost: Humidity % 44 % 78 %
Hitrost vetra: 0 km/h 0 km/h 3.2 km/h
Sunki vetra: 0 km/h - -
Veter:- - SSE
Zračni tlak: 0 hPa 34428.8 hPa -
Padavine: 7.62 mm    
Historical Graphs
 
 
Tabelarni podarki za Februar 25, 2017
Čas Temperatura Točka rosišča Zračni tlak Veter Hitrost vetra Sunki vetra Vlažnost Intenziteta padavin (urna)
-17.8 °C -17.8 °C 0 hPa Calm     Humidity % 0 mm
00:03 -16 °C -16.7 °C 34428.8 hPa Calm     92 % 7.62 mm
00:08 -16 °C -16.7 °C 34428.8 hPa SW 1.8 km/h 6.4 km/h 92 % 7.62 mm
00:13 -16 °C -16.7 °C 34428.8 hPa SW 2.9 km/h 6.4 km/h 92 % 7.62 mm
00:18 -16 °C -16.7 °C 34428.8 hPa SSE 1 km/h 6.4 km/h 92 % 7.62 mm
00:23 -16 °C -16.7 °C 34476.3 hPa Calm     92 % 7.62 mm
00:28 -16 °C -16.6 °C 34476.3 hPa Calm     93 % 7.62 mm
00:33 -16.1 °C -16.6 °C 34476.3 hPa WNW 0.3 km/h 5.6 km/h 93 % 7.62 mm
00:38 -16.1 °C -16.6 °C 34476.3 hPa WNW 1 km/h 5.6 km/h 93 % 7.62 mm
00:43 -16.1 °C -16.6 °C 34476.3 hPa WSW 3.1 km/h 8.9 km/h 93 % 7.62 mm
00:48 -16.1 °C -16.6 °C 34476.3 hPa WSW 4.7 km/h 8.9 km/h 93 % 7.62 mm
00:53 -16.1 °C -16.6 °C 34496.6 hPa SW 3.9 km/h 7.6 km/h 93 % 7.62 mm
00:58 -16.1 °C -16.6 °C 34496.6 hPa SW 3.7 km/h 6.4 km/h 93 % 7.62 mm
01:03 -16.1 °C -16.6 °C 34496.6 hPa SW 2.1 km/h 6.4 km/h 93 % 7.62 mm
01:08 -16.1 °C -16.6 °C 34476.3 hPa Calm     93 % 0 mm
01:13 -16.1 °C -16.6 °C 34476.3 hPa South 0.8 km/h 5.6 km/h 93 % 0 mm
01:18 -16.1 °C -16.6 °C 34476.3 hPa South 0.8 km/h 5.6 km/h 93 % 0 mm
01:23 -16.1 °C -16.7 °C 34476.3 hPa Calm     93 % 0 mm
01:28 -16.1 °C -16.7 °C 34476.3 hPa Calm     93 % 0 mm
01:33 -16.1 °C -16.7 °C 34476.3 hPa Calm     93 % 0 mm
01:38 -16.1 °C -16.7 °C 34428.8 hPa Calm     93 % 0 mm
01:43 -16.2 °C -16.7 °C 34428.8 hPa Calm     93 % 0 mm
01:48 -16.2 °C -16.8 °C 34428.8 hPa Calm     93 % 0 mm
01:53 -16.2 °C -16.8 °C 34428.8 hPa Calm     93 % 0 mm
01:58 -16.3 °C -16.8 °C 34428.8 hPa Calm   3.4 km/h 93 % 0 mm
02:03 -16.3 °C -16.9 °C 34428.8 hPa SSW 2.3 km/h 5.6 km/h 93 % 0 mm
02:08 -16.4 °C -16.9 °C 34428.8 hPa SSW 4.3 km/h 6.4 km/h 93 % 0 mm
02:13 -16.4 °C -17 °C 34428.8 hPa SSW 3.1 km/h 6.4 km/h 93 % 0 mm
02:18 -16.4 °C -17 °C 34428.8 hPa SSW 1 km/h 4.2 km/h 93 % 0 mm
02:23 -16.5 °C -17.1 °C 34476.3 hPa Calm     93 % 0 mm
02:28 -16.5 °C -17.1 °C 34476.3 hPa Calm     93 % 0 mm
02:33 -16.6 °C -17.1 °C 34476.3 hPa WNW 0.3 km/h 4.2 km/h 93 % 0 mm
02:38 -16.6 °C -17.1 °C 34476.3 hPa WNW 1 km/h 4.2 km/h 93 % 0 mm
02:43 -16.6 °C -17.1 °C 34476.3 hPa SW 1.6 km/h 6.4 km/h 93 % 0 mm
02:48 -16.5 °C -17 °C 34476.3 hPa SW 2.9 km/h 6.4 km/h 94 % 0 mm
02:53 -16.5 °C -17 °C 34496.6 hPa SW 3.9 km/h 6.4 km/h 94 % 0 mm
02:58 -16.4 °C -16.9 °C 34496.6 hPa SW 2.3 km/h 4.2 km/h 94 % 0 mm
03:03 -16.4 °C -16.9 °C 34496.6 hPa SSW 0.8 km/h 5.1 km/h 94 % 0 mm
03:08 -16.4 °C -16.9 °C 34496.6 hPa South 0.5 km/h 5.1 km/h 94 % 0 mm
03:13 -16.4 °C -16.9 °C 34496.6 hPa South 0.5 km/h 4.2 km/h 94 % 0 mm
03:19 -16.4 °C -16.9 °C 34496.6 hPa Calm     94 % 0 mm
03:24 -16.3 °C -16.7 °C 34496.6 hPa Calm     95 % 0 mm
03:29 -16.3 °C -16.7 °C 34496.6 hPa ENE 0.8 km/h 6.4 km/h 95 % 0 mm
03:34 -16.3 °C -16.8 °C 34496.6 hPa ENE 1.8 km/h 6.4 km/h 94 % 0 mm
03:39 -16.3 °C -16.7 °C 34496.6 hPa ENE 1 km/h 4.2 km/h 95 % 0 mm
03:44 -16.3 °C -16.7 °C 34496.6 hPa ESE 0.8 km/h 7.6 km/h 95 % 0 mm
03:49 -16.3 °C -16.7 °C 34496.6 hPa ESE 1 km/h 7.6 km/h 95 % 0 mm
03:54 -16.3 °C -16.7 °C 34533.8 hPa ESE 0.3 km/h 4.2 km/h 95 % 0 mm
03:59 -16.3 °C -16.7 °C 34533.8 hPa NW 0.8 km/h 6.9 km/h 95 % 0 mm
04:04 -16.3 °C -16.7 °C 34533.8 hPa NW 1.8 km/h 6.9 km/h 95 % 0 mm
04:09 -16.3 °C -16.7 °C 34533.8 hPa WNW 2.3 km/h 6.9 km/h 95 % 0 mm
04:14 -16.3 °C -16.7 °C 34533.8 hPa WNW 1.6 km/h 6.9 km/h 95 % 0 mm
04:19 -16.3 °C -16.7 °C 34533.8 hPa WNW 0.3 km/h 4.2 km/h 95 % 0 mm
04:24 -16.3 °C -16.7 °C 34533.8 hPa Calm     95 % 0 mm
04:29 -16.3 °C -16.7 °C 34533.8 hPa Calm     95 % 0 mm
04:34 -16.3 °C -16.7 °C 34533.8 hPa Calm     95 % 0 mm
04:39 -16.3 °C -16.7 °C 34496.6 hPa Calm     95 % 0 mm
04:44 -16.3 °C -16.7 °C 34496.6 hPa Calm     95 % 0 mm
04:49 -16.4 °C -16.8 °C 34496.6 hPa Calm     95 % 0 mm
04:54 -16.4 °C -16.8 °C 34533.8 hPa Calm     95 % 0 mm
04:59 -16.5 °C -16.9 °C 34533.8 hPa Calm     95 % 0 mm
05:04 -16.6 °C -16.9 °C 34533.8 hPa Calm     95 % 0 mm
05:09 -16.6 °C -17 °C 34533.8 hPa Calm     95 % 0 mm
05:14 -16.6 °C -17 °C 34533.8 hPa Calm     95 % 0 mm
05:19 -16.6 °C -17 °C 34533.8 hPa Calm     95 % 0 mm
05:24 -16.6 °C -17 °C 34533.8 hPa Calm     95 % 0 mm
05:29 -16.6 °C -17 °C 34533.8 hPa Calm     95 % 0 mm
05:34 -16.6 °C -17 °C 34533.8 hPa Calm     95 % 0 mm
05:39 -16.6 °C -17 °C 34567.7 hPa Calm     95 % 0 mm
05:44 -16.6 °C -17 °C 34567.7 hPa Calm     95 % 0 mm
05:49 -16.6 °C -17 °C 34567.7 hPa Calm     95 % 0 mm
05:54 -16.6 °C -16.9 °C 34567.7 hPa East 0.8 km/h 6.4 km/h 95 % 0 mm
05:59 -16.6 °C -16.9 °C 34567.7 hPa East 1.3 km/h 6.4 km/h 95 % 0 mm
06:04 -16.6 °C -17 °C 34567.7 hPa East 1 km/h 7.6 km/h 95 % 0 mm
06:09 -16.6 °C -17 °C 34567.7 hPa ENE 1.6 km/h 7.6 km/h 95 % 0 mm
06:14 -16.6 °C -17 °C 34567.7 hPa ENE 3.4 km/h 6.9 km/h 95 % 0 mm
06:19 -16.6 °C -17 °C 34567.7 hPa ENE 3.7 km/h 6.9 km/h 95 % 0 mm
06:24 -16.7 °C -17.1 °C 34567.7 hPa NE 2.9 km/h 6.4 km/h 95 % 0 mm
06:29 -16.7 °C -17.1 °C 34567.7 hPa NNE 3.7 km/h 9.3 km/h 95 % 0 mm
06:34 -16.7 °C -17.1 °C 34567.7 hPa North 2.3 km/h 9.3 km/h 95 % 0 mm
06:39 -16.7 °C -17.1 °C 34567.7 hPa NNW 0.5 km/h 5.1 km/h 96 % 0 mm
06:44 -16.8 °C -17.2 °C 34567.7 hPa North 1.8 km/h 8 km/h 95 % 0 mm
06:49 -16.8 °C -17.2 °C 34567.7 hPa North 1.6 km/h 8 km/h 95 % 0 mm
06:54 -16.9 °C -17.3 °C 34601.5 hPa North 0.3 km/h   95 % 0 mm
06:59 -16.9 °C -17.2 °C 34601.5 hPa East 1.8 km/h 6.4 km/h 96 % 0 mm
07:04 -16.9 °C -17.2 °C 34601.5 hPa East 2.1 km/h 6.4 km/h 96 % 0 mm
07:09 -16.9 °C -17.2 °C 34567.7 hPa ESE 1.8 km/h 5.6 km/h 96 % 0 mm
07:15 -16.9 °C -17.3 °C 34567.7 hPa ESE 2.9 km/h 6.4 km/h 96 % 0 mm
07:20 -16.9 °C -17.3 °C 34567.7 hPa East 2.6 km/h 6.4 km/h 96 % 0 mm
07:25 -17 °C -17.3 °C 34601.5 hPa East 1.6 km/h 6.4 km/h 96 % 0 mm
07:30 -17.1 °C -17.4 °C 34601.5 hPa East 1.6 km/h 6.4 km/h 96 % 0 mm
07:35 -17.1 °C -17.4 °C 34601.5 hPa East 2.1 km/h 6.9 km/h 96 % 0 mm
07:40 -17.1 °C -17.4 °C 34601.5 hPa East 2.1 km/h 6.9 km/h 96 % 0 mm
07:45 -17.1 °C -17.4 °C 34601.5 hPa ESE 2.9 km/h 7.6 km/h 96 % 0 mm
07:50 -17 °C -17.3 °C 34601.5 hPa ESE 4.7 km/h 7.6 km/h 96 % 0 mm
07:55 -17 °C -17.3 °C 34601.5 hPa ESE 5 km/h 7.6 km/h 96 % 0 mm
08:00 -17 °C -17.3 °C 34601.5 hPa ESE 4.2 km/h 6.4 km/h 96 % 0 mm
08:05 -16.9 °C -17.3 °C 34601.5 hPa SE 3.1 km/h 6.4 km/h 96 % 0 mm
08:10 -16.9 °C -17.3 °C 34635.4 hPa SSE 1.6 km/h 6.4 km/h 96 % 0 mm
08:15 -16.9 °C -17.3 °C 34635.4 hPa SSW 0.5 km/h 3.4 km/h 96 % 0 mm
08:20 -16.9 °C -17.3 °C 34635.4 hPa South 1.3 km/h 6.4 km/h 96 % 0 mm
08:25 -16.9 °C -17.3 °C 34635.4 hPa SSW 3.1 km/h 7.6 km/h 96 % 0 mm
08:30 -17 °C -17.3 °C 34635.4 hPa SW 3.1 km/h 7.6 km/h 96 % 0 mm
08:35 -16.9 °C -17.3 °C 34635.4 hPa SSW 2.3 km/h 7.6 km/h 96 % 0 mm
08:40 -16.9 °C -17.2 °C 34669.3 hPa SSW 1.3 km/h 7.6 km/h 96 % 0 mm
08:45 -16.9 °C -17.2 °C 34669.3 hPa SE 1.6 km/h 7.6 km/h 96 % 0 mm
08:50 -16.8 °C -17.2 °C 34669.3 hPa ESE 2.6 km/h 7.6 km/h 96 % 0 mm
08:55 -16.8 °C -17.2 °C 34635.4 hPa ENE 2.6 km/h 5.6 km/h 96 % 0 mm
09:00 -16.8 °C -17.2 °C 34635.4 hPa ENE 3.1 km/h 5.6 km/h 96 % 0 mm
09:05 -16.8 °C -17.2 °C 34635.4 hPa East 3.1 km/h 5.6 km/h 96 % 0 mm
09:10 -16.8 °C -17.2 °C 34669.3 hPa East 1.6 km/h 5.6 km/h 96 % 0 mm
09:15 -16.8 °C -17.1 °C 34669.3 hPa Calm     96 % 0 mm
09:20 -16.7 °C -17.1 °C 34669.3 hPa NNE 1.3 km/h 5.6 km/h 96 % 0 mm
09:25 -16.7 °C -17.1 °C 34669.3 hPa NNE 1.3 km/h 5.6 km/h 96 % 0 mm
09:30 -16.6 °C -16.9 °C 34669.3 hPa Calm     96 % 0 mm
09:35 -16.5 °C -16.8 °C 34669.3 hPa SE 0.8 km/h 5.1 km/h 96 % 0 mm
09:40 -16.4 °C -16.8 °C 34669.3 hPa SE 0.8 km/h 5.1 km/h 96 % 0 mm
09:45 -16.3 °C -16.7 °C 34669.3 hPa East 0.3 km/h 3.4 km/h 96 % 0 mm
09:50 -16.3 °C -16.6 °C 34669.3 hPa East 1 km/h 5.1 km/h 96 % 0 mm
09:55 -16.2 °C -16.4 °C 34669.3 hPa ESE 2.3 km/h 6.9 km/h 97 % 0 mm
10:00 -16.1 °C -16.4 °C 34669.3 hPa SE 2.1 km/h 6.9 km/h 96 % 0 mm
10:05 -16 °C -16.3 °C 34669.3 hPa West 1.8 km/h 6.4 km/h 96 % 0 mm
10:10 -15.9 °C -16.3 °C 34669.3 hPa WSW 1.6 km/h 6.4 km/h 96 % 0 mm
10:15 -15.8 °C -16.1 °C 34669.3 hPa SSW 0.8 km/h 5.1 km/h 96 % 0 mm
10:20 -15.7 °C -16 °C 34669.3 hPa SE 1.6 km/h 8.9 km/h 96 % 0 mm
10:25 -15.5 °C -15.8 °C 34669.3 hPa SE 3.9 km/h 8.9 km/h 96 % 0 mm
10:30 -15.3 °C -15.7 °C 34669.3 hPa ESE 5 km/h 8 km/h 96 % 0 mm
10:35 -15.1 °C -15.4 °C 34669.3 hPa SE 5.5 km/h 9.3 km/h 96 % 0 mm
10:40 -14.9 °C -15.3 °C 34635.4 hPa SE 5.6 km/h 12.7 km/h 95 % 0 mm
10:45 -14.7 °C -15.1 °C 34635.4 hPa SSE 6.9 km/h 15.6 km/h 95 % 0 mm
10:50 -14.5 °C -15 °C 34635.4 hPa SSE 9.3 km/h 15.6 km/h 94 % 0 mm
10:55 -14.3 °C -14.9 °C 34635.4 hPa SSE 7.2 km/h 15.6 km/h 92 % 0 mm
11:01 -14.2 °C -15 °C 34635.4 hPa South 5 km/h 16.3 km/h 90 % 0 mm
11:06 -14.2 °C -15.4 °C 34635.4 hPa SSW 8.9 km/h 16.3 km/h 86 % 0 mm
11:11 -14.2 °C -15.4 °C 34669.3 hPa SSW 8.5 km/h 16.3 km/h 85 % 0 mm
11:16 -13.9 °C -15.4 °C 34669.3 hPa SSE 5.6 km/h 12.2 km/h 83 % 0 mm
11:21 -13.7 °C -15.3 °C 34669.3 hPa SSE 5.5 km/h 14.5 km/h 82 % 0 mm
11:26 -13.5 °C -15.4 °C 34669.3 hPa SSE 8 km/h 17.4 km/h 79 % 0 mm
11:31 -13.3 °C -15.3 °C 34669.3 hPa SE 10.3 km/h 22 km/h 78 % 0 mm
11:36 -13.2 °C -15.3 °C 34669.3 hPa SE 10.1 km/h 22 km/h 77 % 0 mm
11:41 -13.3 °C -15.7 °C 34635.4 hPa SE 8.2 km/h 16.3 km/h 74 % 0 mm
11:46 -13.2 °C -15.7 °C 34635.4 hPa SSE 8.9 km/h 15.6 km/h 73 % 0 mm
11:51 -13 °C -15.5 °C 34669.3 hPa SSE 9.8 km/h 16.9 km/h 73 % 0 mm
11:56 -12.8 °C -15.6 °C 34669.3 hPa SSE 10.6 km/h 24.8 km/h 71 % 0 mm
12:01 -12.7 °C -15.6 °C 34669.3 hPa SE 9.8 km/h 24.8 km/h 70 % 0 mm
12:06 -12.7 °C -15.9 °C 34669.3 hPa SSE 8.9 km/h 14.5 km/h 67 % 0 mm
12:11 -12.5 °C -15.6 °C 34669.3 hPa SE 9.8 km/h 9.8 km/h 68 % 0 mm
12:16 -12.4 °C -15.9 °C 34669.3 hPa SE 11.1 km/h 22.5 km/h 65 % 0 mm
12:21 -12.6 °C -16.9 °C 34669.3 hPa ESE 10.1 km/h 25.4 km/h 58 % 0 mm
12:26 -12.4 °C -16.5 °C 34669.3 hPa SE 10.1 km/h 25.4 km/h 60 % 0 mm
12:31 -12.3 °C -16.7 °C 34669.3 hPa SE 11.1 km/h 20.3 km/h 58 % 0 mm
12:37 -12.5 °C -17.7 °C 34669.3 hPa East 10.9 km/h 20.3 km/h 52 % 0 mm
12:42 -12.5 °C -17.3 °C 34669.3 hPa ENE 10.1 km/h 16.9 km/h 55 % 0 mm
12:46 -12.4 °C -17.1 °C 34669.3 hPa East 8.2 km/h 15 km/h 56 % 0 mm
12:52 -12.4 °C -17.7 °C 34669.3 hPa ESE 8.5 km/h 16.3 km/h 52 % 0 mm
12:57 -12.6 °C -17.2 °C 34669.3 hPa East 9.7 km/h 17.4 km/h 56 % 0 mm
13:02 -12.6 °C -17.4 °C 34669.3 hPa East 9 km/h 17.4 km/h 55 % 0 mm
13:07 -12.8 °C -17.6 °C 34635.4 hPa East 6.8 km/h 16.9 km/h 55 % 0 mm
13:12 -13 °C -17.9 °C 34635.4 hPa ENE 6.8 km/h 19.2 km/h 54 % 0 mm
13:17 -13.1 °C -18.2 °C 34635.4 hPa ENE 9 km/h 19.2 km/h 52 % 0 mm
13:22 -13.1 °C -18.4 °C 34635.4 hPa ENE 7.2 km/h 15.6 km/h 51 % 0 mm
13:27 -12.8 °C -18.1 °C 34635.4 hPa SE 8.9 km/h 18.7 km/h 51 % 0 mm
13:32 -12.6 °C -17.8 °C 34635.4 hPa SSE 10.9 km/h 18.7 km/h 52 % 0 mm
13:37 -12.5 °C -17.6 °C 34635.4 hPa SSE 10.6 km/h 18.7 km/h 53 % 0 mm
13:42 -12.4 °C -17.4 °C 34635.4 hPa SSE 10.1 km/h 20.3 km/h 53 % 0 mm
13:47 -12.5 °C -18 °C 34635.4 hPa ESE 9 km/h 20.3 km/h 50 % 0 mm
13:52 -12.4 °C -17.7 °C 34635.4 hPa ESE 11.1 km/h 18.7 km/h 51 % 0 mm
13:57 -12.3 °C -17.7 °C 34635.4 hPa SE 11.4 km/h 18.7 km/h 51 % 0 mm
14:02 -12.3 °C -17.7 °C 34635.4 hPa ESE 12.2 km/h 20.3 km/h 51 % 0 mm
14:07 -12.2 °C -17.6 °C 34635.4 hPa ESE 13.2 km/h 20.3 km/h 51 % 0 mm
14:12 -12.2 °C -17.6 °C 34635.4 hPa ESE 12.2 km/h 26.7 km/h 51 % 0 mm
14:17 -12.2 °C -17.6 °C 34635.4 hPa ESE 11.1 km/h 26.7 km/h 51 % 0 mm
14:22 -12.3 °C -17.8 °C 34635.4 hPa ESE 10.3 km/h 19.6 km/h 50 % 0 mm
14:27 -12.2 °C -17.7 °C 34635.4 hPa SE 8.5 km/h 16.9 km/h 50 % 0 mm
14:32 -12.2 °C -18.1 °C 34635.4 hPa ESE 8.5 km/h 16.9 km/h 48 % 0 mm
14:37 -12.2 °C -17.9 °C 34601.5 hPa East 8.5 km/h 14.5 km/h 49 % 0 mm
14:42 -12.3 °C -18.2 °C 34601.5 hPa East 8.2 km/h 15.6 km/h 48 % 0 mm
14:47 -12.3 °C -18.2 °C 34601.5 hPa ESE 9 km/h 16.3 km/h 48 % 0 mm
14:52 -12.3 °C -18.1 °C 34601.5 hPa ESE 6.4 km/h 16.3 km/h 48 % 0 mm
14:57 -12.3 °C -18.3 °C 34601.5 hPa ENE 6.4 km/h 22.5 km/h 47 % 0 mm
15:02 -12.4 °C -18.4 °C 34601.5 hPa ENE 10.3 km/h 22.5 km/h 47 % 0 mm
15:07 -12.4 °C -18.4 °C 34601.5 hPa ENE 12.2 km/h 20.3 km/h 47 % 0 mm
15:12 -12.5 °C -18.5 °C 34601.5 hPa ENE 13.5 km/h 23.8 km/h 47 % 0 mm
15:18 -12.4 °C -18.4 °C 34601.5 hPa ENE 10.6 km/h 23.8 km/h 47 % 0 mm
15:23 -12.4 °C -18.4 °C 34601.5 hPa East 7.6 km/h 11.1 km/h 47 % 0 mm
15:28 -12.5 °C -18.5 °C 34601.5 hPa East 3.7 km/h 11.1 km/h 47 % 0 mm
15:33 -12.5 °C -18.5 °C 34601.5 hPa ESE 3.9 km/h 15 km/h 47 % 0 mm
15:38 -12.6 °C -18.5 °C 34601.5 hPa ESE 8.9 km/h 16.9 km/h 47 % 0 mm
15:43 -12.6 °C -18.7 °C 34601.5 hPa East 10.3 km/h 16.9 km/h 46 % 0 mm
15:48 -12.7 °C -19.1 °C 34601.5 hPa ENE 10.6 km/h 23.8 km/h 44 % 0 mm
15:53 -12.7 °C -18.7 °C 34601.5 hPa East 12.7 km/h 23.8 km/h 47 % 0 mm
15:58 -12.8 °C -18.8 °C 34601.5 hPa ESE 12.7 km/h 19.2 km/h 47 % 0 mm
16:03 -12.9 °C -18.9 °C 34601.5 hPa ESE 9.8 km/h 15 km/h 47 % 0 mm
16:08 -13.1 °C -19 °C 34601.5 hPa SE 7.6 km/h 14 km/h 47 % 0 mm
16:13 -13.1 °C -19.1 °C 34601.5 hPa SE 7.7 km/h 20.9 km/h 47 % 0 mm
16:18 -13.2 °C -19.1 °C 34601.5 hPa ESE 9.8 km/h 20.9 km/h 47 % 0 mm
16:23 -13.2 °C -19.1 °C 34601.5 hPa ESE 8.9 km/h 16.3 km/h 47 % 0 mm
16:28 -13.3 °C -19.3 °C 34601.5 hPa ESE 8 km/h 14 km/h 47 % 0 mm
16:33 -13.4 °C -19.1 °C 34601.5 hPa ESE 5.6 km/h 14 km/h 48 % 0 mm
16:38 -13.5 °C -19.2 °C 34601.5 hPa ESE 5.5 km/h 12.7 km/h 48 % 0 mm
16:43 -13.6 °C -19.3 °C 34601.5 hPa SE 3.9 km/h 12.7 km/h 48 % 0 mm
16:48 -13.6 °C -19.3 °C 34601.5 hPa ESE 3.7 km/h 11.1 km/h 48 % 0 mm
16:53 -13.7 °C -19.4 °C 34601.5 hPa ESE 6.4 km/h 11.1 km/h 48 % 0 mm
16:58 -13.8 °C -19.5 °C 34601.5 hPa ESE 6.8 km/h 14.5 km/h 48 % 0 mm
17:03 -13.8 °C -19.6 °C 34601.5 hPa ESE 7.2 km/h 14.5 km/h 48 % 0 mm
17:08 -13.9 °C -19.5 °C 34601.5 hPa ESE 5.6 km/h 12.7 km/h 49 % 0 mm
17:13 -14.1 °C -19.6 °C 34601.5 hPa ESE 3.1 km/h 8.9 km/h 49 % 0 mm
17:18 -14.3 °C -19.7 °C 34601.5 hPa ESE 1 km/h 8 km/h 50 % 0 mm
17:23 -14.5 °C -19.7 °C 34601.5 hPa West 0.5 km/h 6.4 km/h 51 % 0 mm
17:28 -14.7 °C -19.9 °C 34601.5 hPa West 1 km/h 6.4 km/h 51 % 0 mm
17:33 -14.9 °C -19.9 °C 34601.5 hPa NW 2.3 km/h 9.3 km/h 52 % 0 mm
17:38 -15.1 °C -20 °C 34601.5 hPa NW 4.2 km/h 9.3 km/h 53 % 0 mm
17:43 -15.2 °C -19.9 °C 34601.5 hPa NW 4.3 km/h 8 km/h 54 % 0 mm
17:48 -15.4 °C -20.1 °C 34601.5 hPa NW 1.8 km/h 6.4 km/h 54 % 0 mm
17:53 -15.6 °C -20 °C 34635.4 hPa North 0.3 km/h 5.1 km/h 56 % 0 mm
17:58 -15.7 °C -19.9 °C 34635.4 hPa NW 3.1 km/h 9.8 km/h 57 % 0 mm
18:03 -15.8 °C -19.9 °C 34635.4 hPa NW 3.1 km/h 9.8 km/h 58 % 0 mm
18:08 -15.9 °C -19.9 °C 34635.4 hPa NNE 1.3 km/h 6.9 km/h 59 % 0 mm
18:13 -16.1 °C -19.8 °C 34635.4 hPa North 1 km/h 6.9 km/h 61 % 0 mm
18:18 -16.1 °C -19.8 °C 34635.4 hPa Calm   2.9 km/h 62 % 0 mm
18:23 -16.3 °C -19.7 °C 34669.3 hPa Calm     64 % 0 mm
18:28 -16.3 °C -19.8 °C 34669.3 hPa WNW 1 km/h 6.4 km/h 63 % 0 mm
18:33 -16.4 °C -19.8 °C 34669.3 hPa WNW 2.1 km/h 6.4 km/h 64 % 0 mm
18:38 -16.4 °C -19.7 °C 34669.3 hPa SW 2.6 km/h 6.9 km/h 65 % 0 mm
18:43 -16.5 °C -19.8 °C 34669.3 hPa SW 1.8 km/h 6.9 km/h 65 % 0 mm
18:48 -16.6 °C -19.9 °C 34669.3 hPa WNW 2.6 km/h 7.6 km/h 65 % 0 mm
18:53 -16.7 °C -19.7 °C 34635.4 hPa WNW 3.7 km/h 7.6 km/h 67 % 0 mm
18:58 -16.7 °C -19.7 °C 34635.4 hPa NNW 1.3 km/h 6.9 km/h 68 % 0 mm
19:03 -16.8 °C -19.7 °C 34635.4 hPa Calm     69 % 0 mm
19:08 -16.9 °C -19.8 °C 34669.3 hPa Calm   4.2 km/h 69 % 0 mm
19:13 -17.1 °C -19.8 °C 34669.3 hPa Calm   4.2 km/h 70 % 0 mm
19:18 -17.1 °C -19.8 °C 34669.3 hPa Calm     70 % 0 mm
19:23 -17.2 °C -19.8 °C 34703.1 hPa Calm     71 % 0 mm
19:29 -17.2 °C -19.7 °C 34703.1 hPa Calm     72 % 0 mm
19:34 -17.3 °C -19.8 °C 34703.1 hPa NW 0.8 km/h 6.4 km/h 72 % 0 mm
19:39 -17.4 °C -19.9 °C 34669.3 hPa NW 1 km/h 6.4 km/h 72 % 0 mm
19:44 -17.4 °C -19.8 °C 34669.3 hPa Calm     73 % 0 mm
19:49 -17.4 °C -19.8 °C 34669.3 hPa Calm     73 % 0 mm
19:54 -17.5 °C -19.9 °C 34635.4 hPa Calm     73 % 0 mm
19:59 -17.6 °C -19.8 °C 34635.4 hPa Calm     74 % 0 mm
20:04 -17.6 °C -19.8 °C 34635.4 hPa Calm     74 % 0 mm
20:09 -17.6 °C -19.9 °C 34669.3 hPa Calm     74 % 0 mm
20:14 -17.6 °C -19.8 °C 34669.3 hPa Calm     75 % 0 mm
20:19 -17.7 °C -19.8 °C 34669.3 hPa Calm     75 % 0 mm
20:24 -17.7 °C -19.9 °C 34703.1 hPa Calm     75 % 0 mm
20:29 -17.8 °C -19.8 °C 34703.1 hPa Calm     76 % 0 mm
20:34 -17.8 °C -19.8 °C 34703.1 hPa Calm     76 % 0 mm
20:39 -17.9 °C -19.9 °C 34703.1 hPa Calm     76 % 0 mm
20:44 -17.9 °C -19.9 °C 34703.1 hPa Calm     77 % 0 mm
20:49 -18 °C -19.9 °C 34703.1 hPa Calm     77 % 0 mm
20:54 -18.1 °C -20.1 °C 34669.3 hPa Calm     77 % 0 mm
20:59 -18.1 °C -20.1 °C 34669.3 hPa Calm     77 % 0 mm
21:04 -18.1 °C -20.1 °C 34669.3 hPa Calm     77 % 0 mm
21:09 -18.2 °C -20.1 °C 34669.3 hPa Calm     77 % 0 mm
21:14 -18.2 °C -20.2 °C 34669.3 hPa Calm     77 % 0 mm
21:19 -18.2 °C -20.1 °C 34669.3 hPa SW 0.5 km/h 5.6 km/h 78 % 0 mm
21:24 -18.3 °C -20.2 °C 34669.3 hPa West 2.6 km/h 6.4 km/h 78 % 0 mm
21:29 -18.3 °C -20.2 °C 34669.3 hPa NW 3.1 km/h 6.4 km/h 78 % 0 mm
21:34 -18.3 °C -20.1 °C 34669.3 hPa North 1 km/h 6.4 km/h 79 % 0 mm
21:39 -18.3 °C -20.1 °C 34669.3 hPa Calm     79 % 0 mm
21:44 -18.4 °C -20.2 °C 34669.3 hPa Calm     79 % 0 mm
21:49 -18.4 °C -20.2 °C 34669.3 hPa Calm     79 % 0 mm
21:54 -18.4 °C -20.2 °C 34669.3 hPa Calm     79 % 0 mm
21:59 -18.5 °C -20.2 °C 34669.3 hPa Calm     80 % 0 mm
22:04 -18.5 °C -20.2 °C 34669.3 hPa Calm     80 % 0 mm
22:09 -18.6 °C -20.2 °C 34669.3 hPa Calm     80 % 0 mm
22:14 -18.6 °C -20.2 °C 34669.3 hPa Calm     80 % 0 mm
22:19 -18.6 °C -20.1 °C 34669.3 hPa Calm     81 % 0 mm
22:25 -18.6 °C -20.3 °C 34669.3 hPa Calm     80 % 0 mm
22:30 -18.7 °C -20.2 °C 34669.3 hPa Calm     81 % 0 mm
22:35 -18.7 °C -20.2 °C 34669.3 hPa Calm     81 % 0 mm
22:36 -18.7 °C -20.3 °C 34669.3 hPa Calm     81 % 0 mm
22:41 -18.7 °C -20.3 °C 34669.3 hPa Calm     81 % 0 mm
22:46 -18.8 °C -20.3 °C 34669.3 hPa Calm     81 % 0 mm
22:51 -18.8 °C -20.3 °C 34669.3 hPa Calm     81 % 0 mm
22:56 -18.8 °C -20.4 °C 34669.3 hPa Calm     81 % 0 mm
23:01 -18.8 °C -20.3 °C 34669.3 hPa Calm     82 % 0 mm
23:06 -18.8 °C -20.3 °C 34669.3 hPa Calm     82 % 0 mm
23:11 -18.8 °C -20.4 °C 34669.3 hPa Calm     81 % 0 mm
23:12 -18.9 °C -20.4 °C 34669.3 hPa Calm     82 % 0 mm
23:17 -18.9 °C -20.4 °C 34669.3 hPa Calm     82 % 0 mm
23:22 -18.9 °C -20.4 °C 34669.3 hPa Calm     82 % 0 mm
23:27 -18.9 °C -20.3 °C 34669.3 hPa Calm     83 % 0 mm
23:33 -18.9 °C -20.3 °C 34669.3 hPa Calm     83 % 0 mm
23:37 -19 °C -20.4 °C 34669.3 hPa Calm     83 % 0 mm
23:43 -19 °C -20.4 °C 34669.3 hPa Calm     83 % 0 mm
23:48 -19.1 °C -20.4 °C 34669.3 hPa Calm     83 % 0 mm
23:53 -19.1 °C -20.4 °C 34669.3 hPa Calm     83 % 0 mm
23:58 -19.1 °C -20.5 °C 34669.3 hPa Calm     83 % 0 mm
Vremenska postaja Senovo
Podatki zbrani iz Weather Underground - 3 mb

Script developed by  Jim McMurry - jmcmurry@mwt.net Adapted for the template by  Wim van der Kuil - Leuven-Template.eu

Vremenski podatki so objavljeni na:

European Weather Network

WeatherCloud

Weather Underground

AWEKAS

HAMweather, WeatherForYou, PWS Weather

MapView

Geostik

Slovenia weather network

Oprema, ki se uporablja:

Vremenski program
Cumulus

Vremenski server
Asus

Cumulus

Asus